createdAt,value
2018-09-14T00:01:13.460Z,91.51
2018-09-14T00:03:41.993Z,90.93
2018-09-14T00:06:10.540Z,90.86
2018-09-14T00:08:39.090Z,90.52
2018-09-14T00:11:07.637Z,90.91
2018-09-14T00:13:36.184Z,91.27
2018-09-14T00:16:04.729Z,93.78
2018-09-14T00:18:33.268Z,93.93
2018-09-14T00:21:01.784Z,93.15
2018-09-14T00:23:30.354Z,93.03
2018-09-14T00:25:58.876Z,93.59
2018-09-14T00:28:27.425Z,93.35
2018-09-14T00:30:55.951Z,92.77
2018-09-14T00:33:24.501Z,92.25
2018-09-14T00:35:53.033Z,91.42
2018-09-14T00:38:21.577Z,91.72
2018-09-14T00:40:50.395Z,92.36
2018-09-14T00:43:18.916Z,92.78
2018-09-14T00:45:47.460Z,91.74
2018-09-14T00:48:15.977Z,92.60
2018-09-14T00:50:44.540Z,91.43
2018-09-14T00:53:13.107Z,92.39
2018-09-14T00:55:41.658Z,91.46
2018-09-14T00:58:10.172Z,91.98
2018-09-14T01:00:38.722Z,92.49
2018-09-14T01:03:07.241Z,92.22
2018-09-14T01:05:35.818Z,92.08
2018-09-14T01:08:04.352Z,92.40
2018-09-14T01:10:32.901Z,92.92
2018-09-14T01:13:01.420Z,92.36
2018-09-14T01:15:29.977Z,92.80
2018-09-14T01:17:58.772Z,92.05
2018-09-14T01:20:27.320Z,91.78
2018-09-14T01:22:55.844Z,91.44
2018-09-14T01:25:24.689Z,90.57
2018-09-14T01:27:53.209Z,89.31
2018-09-14T01:30:21.756Z,88.32
2018-09-14T01:32:50.276Z,87.90
2018-09-14T01:35:24.061Z,87.69
2018-09-14T01:37:52.571Z,86.85
2018-09-14T01:40:21.117Z,86.74
2018-09-14T01:42:49.629Z,86.63
2018-09-14T01:45:18.185Z,86.70
2018-09-14T01:47:46.709Z,86.64
2018-09-14T01:50:15.253Z,86.09
2018-09-14T01:52:43.760Z,86.26
2018-09-14T01:55:12.313Z,86.39
2018-09-14T01:57:40.900Z,85.91
2018-09-14T02:00:09.500Z,86.20
2018-09-14T02:02:38.004Z,85.72
2018-09-14T02:05:06.641Z,85.83
2018-09-14T02:07:35.172Z,85.59
2018-09-14T02:10:03.765Z,86.61
2018-09-14T02:12:32.388Z,85.41
2018-09-14T02:15:00.954Z,85.25
2018-09-14T02:17:29.492Z,85.01
2018-09-14T02:19:58.065Z,83.76
2018-09-14T02:22:26.602Z,84.28
2018-09-14T02:24:55.156Z,84.25
2018-09-14T02:27:23.696Z,84.46
2018-09-14T02:29:52.268Z,84.88
2018-09-14T02:32:20.800Z,84.76
2018-09-14T02:34:49.372Z,85.19
2018-09-14T02:37:17.952Z,85.03
2018-09-14T02:39:46.479Z,84.11
2018-09-14T02:42:15.037Z,84.45
2018-09-14T02:44:43.562Z,84.45
2018-09-14T02:47:12.126Z,83.74
2018-09-14T02:49:40.660Z,83.79
2018-09-14T02:52:09.224Z,84.04
2018-09-14T02:54:37.821Z,83.20
2018-09-14T02:57:06.389Z,83.26
2018-09-14T02:59:34.919Z,83.44
2018-09-14T03:02:03.517Z,83.70
2018-09-14T03:04:32.124Z,83.65
2018-09-14T03:07:00.674Z,84.40
2018-09-14T03:09:29.213Z,84.25
2018-09-14T03:11:58.177Z,84.15
2018-09-14T03:14:26.736Z,82.69
2018-09-14T03:16:55.301Z,83.17
2018-09-14T03:19:23.820Z,82.79
2018-09-14T03:21:52.404Z,83.75
2018-09-14T03:24:21.171Z,84.32
2018-09-14T03:26:49.732Z,84.36
2018-09-14T03:29:18.510Z,83.83
2018-09-14T03:31:47.068Z,84.45
2018-09-14T03:34:15.576Z,83.61
2018-09-14T03:36:44.120Z,83.80
2018-09-14T03:39:12.667Z,84.47
2018-09-14T03:41:41.212Z,83.04
2018-09-14T03:44:09.779Z,82.92
2018-09-14T03:46:38.321Z,82.76
2018-09-14T03:49:06.835Z,83.10
2018-09-14T03:51:35.383Z,83.52
2018-09-14T03:54:03.902Z,84.24
2018-09-14T03:56:32.449Z,83.82
2018-09-14T03:59:00.973Z,84.05
2018-09-14T04:01:29.536Z,83.34
2018-09-14T04:03:58.064Z,84.22
2018-09-14T04:06:26.636Z,84.28
2018-09-14T04:08:55.152Z,83.81
2018-09-14T04:11:23.764Z,83.79
2018-09-14T04:13:52.283Z,83.81
2018-09-14T04:16:24.843Z,83.91
2018-09-14T04:18:58.880Z,84.22
2018-09-14T04:21:29.069Z,84.50
2018-09-14T04:23:57.813Z,84.06
2018-09-14T04:26:27.512Z,84.44
2018-09-14T04:28:56.513Z,84.05
2018-09-14T04:31:25.090Z,83.64
2018-09-14T04:33:53.761Z,83.51
2018-09-14T04:36:22.380Z,83.64
2018-09-14T04:38:51.007Z,84.00
2018-09-14T04:41:20.365Z,84.54
2018-09-14T04:43:49.826Z,84.39
2018-09-14T04:46:18.794Z,84.18
2018-09-14T04:48:47.338Z,84.47
2018-09-14T04:51:15.895Z,85.04
2018-09-14T04:53:44.432Z,85.20
2018-09-14T04:56:12.953Z,85.32
2018-09-14T04:58:41.501Z,84.90
2018-09-14T05:01:10.021Z,85.80
2018-09-14T05:03:39.045Z,84.75
2018-09-14T05:06:07.608Z,84.19
2018-09-14T05:08:36.251Z,84.40
2018-09-14T05:11:04.841Z,84.38
2018-09-14T05:13:33.405Z,84.98
2018-09-14T05:16:04.143Z,84.55
2018-09-14T05:18:41.306Z,85.49
2018-09-14T05:21:10.153Z,85.76
2018-09-14T05:23:39.634Z,84.66
2018-09-14T05:26:08.776Z,85.22
2018-09-14T05:28:37.336Z,84.84
2018-09-14T05:31:06.434Z,84.60
2018-09-14T05:33:35.383Z,84.03
2018-09-14T05:36:03.936Z,84.00
2018-09-14T05:38:32.532Z,84.25
2018-09-14T05:41:01.062Z,84.88
2018-09-14T05:43:29.804Z,84.84
2018-09-14T05:45:58.333Z,84.92
2018-09-14T05:48:27.088Z,84.74
2018-09-14T05:50:55.736Z,84.53
2018-09-14T05:53:24.299Z,84.01
2018-09-14T05:55:54.304Z,84.44
2018-09-14T05:58:22.865Z,83.53
2018-09-14T06:00:51.493Z,84.06
2018-09-14T06:03:20.109Z,83.21
2018-09-14T06:05:48.700Z,83.16
2018-09-14T06:08:17.273Z,83.86
2018-09-14T06:10:45.809Z,85.02
2018-09-14T06:13:14.411Z,84.62
2018-09-14T06:15:42.946Z,84.62
2018-09-14T06:18:11.512Z,84.71
2018-09-14T06:20:40.036Z,85.48
2018-09-14T06:23:08.666Z,84.87
2018-09-14T06:25:37.165Z,84.97
2018-09-14T06:28:05.873Z,82.46
2018-09-14T06:30:39.021Z,81.92
2018-09-14T06:33:13.497Z,81.57
2018-09-14T06:35:42.253Z,82.27
2018-09-14T06:38:13.717Z,82.60
2018-09-14T06:40:42.457Z,82.68
2018-09-14T06:43:11.108Z,82.13
2018-09-14T06:45:39.656Z,80.82
2018-09-14T06:48:08.225Z,81.95
2018-09-14T06:50:36.778Z,81.09
2018-09-14T06:53:05.357Z,81.59
2018-09-14T06:55:33.941Z,80.99
2018-09-14T06:58:02.485Z,80.69
2018-09-14T07:00:31.135Z,80.87
2018-09-14T07:02:59.612Z,80.70
2018-09-14T07:05:28.299Z,81.02
2018-09-14T07:07:56.846Z,79.51
2018-09-14T07:10:25.426Z,78.30
2018-09-14T07:12:53.964Z,78.01
2018-09-14T07:15:22.867Z,78.46
2018-09-14T07:17:51.421Z,77.39
2018-09-14T07:20:19.981Z,77.03
2018-09-14T07:22:48.521Z,76.66
2018-09-14T07:25:17.088Z,76.61
2018-09-14T07:27:45.636Z,75.88
2018-09-14T07:30:14.272Z,75.69
2018-09-14T07:32:43.053Z,75.12
2018-09-14T07:35:11.650Z,75.47
2018-09-14T07:37:40.185Z,74.56
2018-09-14T07:40:08.766Z,74.23
2018-09-14T07:42:37.343Z,75.13
2018-09-14T07:45:06.293Z,74.85
2018-09-14T07:47:34.828Z,75.05
2018-09-14T07:50:03.407Z,74.62
2018-09-14T07:52:31.941Z,74.52
2018-09-14T07:55:00.512Z,75.05
2018-09-14T07:57:29.054Z,73.64
2018-09-14T07:59:57.628Z,74.54
2018-09-14T08:02:26.178Z,73.38
2018-09-14T08:04:54.758Z,73.67
2018-09-14T08:07:23.275Z,73.97
2018-09-14T08:09:52.109Z,74.52
2018-09-14T08:12:20.649Z,73.52
2018-09-14T08:14:49.201Z,72.63
2018-09-14T08:17:17.728Z,72.16
2018-09-14T08:19:46.276Z,72.68
2018-09-14T08:22:14.784Z,72.33
2018-09-14T08:24:43.368Z,72.59
2018-09-14T08:27:11.907Z,72.66
2018-09-14T08:29:40.428Z,71.92
2018-09-14T08:32:09.002Z,72.33
2018-09-14T08:34:37.523Z,73.01
2018-09-14T08:37:06.104Z,71.96
2018-09-14T08:39:34.622Z,72.74
2018-09-14T08:42:03.169Z,72.04
2018-09-14T08:44:31.689Z,72.19
2018-09-14T08:47:00.297Z,72.09
2018-09-14T08:49:28.817Z,71.61
2018-09-14T08:51:57.433Z,72.87
2018-09-14T08:54:25.961Z,73.61
2018-09-14T08:56:54.513Z,73.51
2018-09-14T08:59:23.045Z,73.42
2018-09-14T09:01:51.613Z,73.22
2018-09-14T09:04:20.133Z,73.49
2018-09-14T09:06:48.722Z,73.60
2018-09-14T09:09:17.306Z,72.54
2018-09-14T09:11:45.789Z,72.05
2018-09-14T09:14:14.309Z,71.37
2018-09-14T09:16:43.196Z,70.40
2018-09-14T09:19:11.726Z,70.10
2018-09-14T09:21:40.274Z,68.43
2018-09-14T09:24:08.808Z,69.41
2018-09-14T09:26:37.358Z,68.85
2018-09-14T09:29:06.046Z,67.67
2018-09-14T09:31:34.596Z,66.72
2018-09-14T09:34:03.120Z,67.49
2018-09-14T09:36:31.677Z,67.13
2018-09-14T09:39:00.189Z,66.23
2018-09-14T09:41:28.728Z,66.51
2018-09-14T09:43:57.301Z,65.29
2018-09-14T09:46:25.804Z,65.41
2018-09-14T09:48:54.321Z,66.34
2018-09-14T09:51:22.930Z,66.84
2018-09-14T09:53:51.400Z,65.87
2018-09-14T09:56:19.939Z,65.24
2018-09-14T09:58:48.509Z,65.22
2018-09-14T10:01:22.289Z,67.12
2018-09-14T10:05:58.413Z,66.70
2018-09-14T10:08:27.028Z,66.15
2018-09-14T10:10:55.577Z,64.49
2018-09-14T10:13:24.141Z,65.14
2018-09-14T10:15:52.664Z,64.56
2018-09-14T10:18:21.231Z,64.48
2018-09-14T10:20:49.828Z,65.01
2018-09-14T10:23:18.682Z,64.98
2018-09-14T10:25:50.120Z,66.22
2018-09-14T10:28:18.686Z,65.93
2018-09-14T10:30:47.204Z,65.57
2018-09-14T10:33:15.805Z,66.36
2018-09-14T10:35:44.363Z,64.96
2018-09-14T10:38:12.922Z,64.90
2018-09-14T10:40:41.471Z,64.96
2018-09-14T10:43:10.018Z,63.83
2018-09-14T10:45:38.569Z,63.85
2018-09-14T10:48:07.162Z,63.37
2018-09-14T10:50:35.677Z,63.34
2018-09-14T10:53:04.293Z,63.05
2018-09-14T10:55:32.821Z,63.48
2018-09-14T10:58:01.369Z,64.24
2018-09-14T11:00:29.900Z,63.18
2018-09-14T11:02:58.457Z,63.62
2018-09-14T11:05:27.008Z,63.28
2018-09-14T11:07:55.553Z,63.52
2018-09-14T11:10:24.116Z,63.35
2018-09-14T11:12:52.715Z,63.66
2018-09-14T11:15:21.232Z,61.65
2018-09-14T11:17:49.776Z,61.66
2018-09-14T11:20:18.288Z,60.39
2018-09-14T11:25:14.466Z,59.92
2018-09-14T11:27:42.941Z,60.00
2018-09-14T11:30:11.481Z,60.17
2018-09-14T11:32:40.103Z,59.29
2018-09-14T11:35:08.708Z,60.59
2018-09-14T11:37:37.265Z,61.84
2018-09-14T11:40:05.833Z,62.63
2018-09-14T11:42:34.648Z,61.83
2018-09-14T11:45:03.212Z,60.26
2018-09-14T11:47:34.970Z,61.02
2018-09-14T11:50:05.211Z,60.55
2018-09-14T11:52:33.818Z,61.27
2018-09-14T11:55:03.078Z,61.01
2018-09-14T11:57:32.069Z,60.73
2018-09-14T12:00:00.613Z,59.10
2018-09-14T12:02:30.135Z,59.37
2018-09-14T12:04:59.737Z,58.55
2018-09-14T12:07:35.879Z,57.76
2018-09-14T12:10:12.215Z,58.62
2018-09-14T12:12:40.968Z,58.01
2018-09-14T12:15:13.288Z,57.99
2018-09-14T12:17:46.389Z,57.32
2018-09-14T12:20:14.984Z,57.19
2018-09-14T12:22:47.531Z,56.89
2018-09-14T12:25:19.471Z,57.27
2018-09-14T12:27:54.008Z,57.21
2018-09-14T12:30:25.841Z,56.78
2018-09-14T12:32:55.878Z,58.13
2018-09-14T12:35:24.424Z,58.71
2018-09-14T12:37:52.993Z,58.84
2018-09-14T12:40:22.852Z,56.47
2018-09-14T12:42:56.106Z,56.05
2018-09-14T12:45:24.690Z,54.52
2018-09-14T12:47:54.204Z,53.96
2018-09-14T12:50:24.864Z,55.08
2018-09-14T12:52:53.418Z,55.89
2018-09-14T12:55:23.447Z,55.41
2018-09-14T12:57:54.403Z,55.75
2018-09-14T13:00:23.029Z,55.55
2018-09-14T13:02:56.747Z,56.68
2018-09-14T13:05:30.461Z,56.69
2018-09-14T13:08:00.873Z,56.74
2018-09-14T13:10:33.509Z,56.63
2018-09-14T13:13:07.267Z,57.83
2018-09-14T13:15:36.345Z,57.11
2018-09-14T13:18:10.900Z,57.59
2018-09-14T13:20:41.829Z,57.28
2018-09-14T13:23:10.332Z,57.17
2018-09-14T13:25:38.865Z,56.72
2018-09-14T13:28:07.421Z,56.85
2018-09-14T13:30:39.101Z,56.18
2018-09-14T13:33:09.337Z,57.39
2018-09-14T13:35:37.939Z,56.51
2018-09-14T13:38:06.963Z,55.46
2018-09-14T13:40:35.516Z,54.92
2018-09-14T13:43:04.037Z,55.39
2018-09-14T13:45:32.597Z,55.41
2018-09-14T13:48:08.686Z,54.80
2018-09-14T13:50:39.435Z,53.45
2018-09-14T13:53:07.991Z,55.04
2018-09-14T13:55:36.560Z,54.47
2018-09-14T13:58:08.931Z,53.24
2018-09-14T14:00:37.690Z,52.42
2018-09-14T14:03:06.733Z,52.50
2018-09-14T14:05:35.564Z,51.34
2018-09-14T14:08:04.076Z,51.91
2018-09-14T14:10:32.586Z,51.16
2018-09-14T14:13:01.203Z,51.73
2018-09-14T14:15:34.178Z,52.82
2018-09-14T14:18:06.875Z,54.32
2018-09-14T14:20:35.641Z,53.69
2018-09-14T14:23:04.202Z,53.79
2018-09-14T14:25:32.817Z,54.09
2018-09-14T14:28:01.378Z,54.47
2018-09-14T14:30:29.884Z,54.23
2018-09-14T14:32:58.582Z,54.13
2018-09-14T14:35:27.100Z,54.04
2018-09-14T14:38:03.310Z,54.20
2018-09-14T14:40:32.186Z,53.97
2018-09-14T14:43:00.948Z,53.37
2018-09-14T14:45:30.444Z,54.29
2018-09-14T14:47:59.260Z,54.39
2018-09-14T14:50:27.768Z,54.37
2018-09-14T14:52:57.826Z,55.05
2018-09-14T14:55:26.745Z,55.27
2018-09-14T14:57:55.929Z,54.81
2018-09-14T15:00:24.457Z,54.84
2018-09-14T15:02:53.009Z,54.49
2018-09-14T15:05:21.566Z,54.13
2018-09-14T15:07:50.116Z,54.38
2018-09-14T15:10:18.632Z,55.16
2018-09-14T15:12:47.181Z,55.13
2018-09-14T15:15:20.247Z,55.09
2018-09-14T15:17:48.953Z,55.38
2018-09-14T15:20:17.505Z,54.74
2018-09-14T15:22:46.052Z,54.12
2018-09-14T15:25:16.976Z,51.21
2018-09-14T15:27:47.704Z,50.30
2018-09-14T15:30:18.395Z,52.39
2018-09-14T15:32:47.020Z,53.30
2018-09-14T15:35:18.245Z,54.04
2018-09-14T15:37:48.336Z,53.85
2018-09-14T15:40:18.145Z,53.44
2018-09-14T15:42:46.698Z,54.14
2018-09-14T15:45:15.214Z,54.37
2018-09-14T15:47:43.803Z,54.27
2018-09-14T15:50:12.329Z,54.41
2018-09-14T15:52:40.874Z,55.57
2018-09-14T15:55:09.436Z,55.00
2018-09-14T15:57:39.974Z,53.85
2018-09-14T16:00:08.716Z,55.13
2018-09-14T16:02:37.240Z,55.36
2018-09-14T16:05:05.881Z,55.40
2018-09-14T16:07:34.416Z,56.18
2018-09-14T16:10:05.377Z,56.20
2018-09-14T16:12:33.920Z,56.62
2018-09-14T16:15:02.519Z,56.88
2018-09-14T16:17:32.885Z,57.37
2018-09-14T16:20:01.537Z,56.83
2018-09-14T16:22:30.073Z,56.86
2018-09-14T16:25:03.590Z,57.01
2018-09-14T16:27:32.118Z,57.17
2018-09-14T16:30:00.677Z,56.63
2018-09-14T16:32:29.209Z,57.32
2018-09-14T16:34:58.081Z,57.75
2018-09-14T16:37:26.759Z,57.54
2018-09-14T16:39:55.329Z,58.06
2018-09-14T16:42:23.871Z,57.67
2018-09-14T16:44:52.461Z,57.73
2018-09-14T16:47:21.000Z,57.90
2018-09-14T16:49:49.566Z,58.18
2018-09-14T16:52:18.111Z,58.43
2018-09-14T16:54:46.672Z,58.53
2018-09-14T16:57:15.205Z,58.97
2018-09-14T16:59:43.800Z,58.67
2018-09-14T17:02:12.342Z,58.85
2018-09-14T17:04:40.973Z,59.12
2018-09-14T17:07:09.590Z,59.38
2018-09-14T17:09:38.165Z,60.22
2018-09-14T17:12:06.701Z,60.19
2018-09-14T17:14:35.309Z,59.90
2018-09-14T17:17:03.820Z,60.24
2018-09-14T17:19:32.364Z,60.89
2018-09-14T17:22:00.901Z,60.86
2018-09-14T17:24:29.439Z,60.82
2018-09-14T17:26:57.957Z,61.64
2018-09-14T17:29:26.509Z,61.57
2018-09-14T17:31:55.030Z,61.59
2018-09-14T17:34:29.434Z,61.95
2018-09-14T17:37:02.214Z,61.96
2018-09-14T17:39:30.808Z,62.48
2018-09-14T17:41:59.309Z,62.36
2018-09-14T17:44:35.625Z,62.38
2018-09-14T17:47:06.699Z,62.87
2018-09-14T17:49:40.395Z,63.24
2018-09-14T17:52:09.030Z,63.57
2018-09-14T17:54:37.577Z,63.58
2018-09-14T17:57:06.083Z,64.14
2018-09-14T17:59:34.648Z,64.16
2018-09-14T18:02:03.171Z,65.03
2018-09-14T18:04:35.450Z,66.09
2018-09-14T18:07:04.164Z,66.67
2018-09-14T18:09:32.689Z,66.33
2018-09-14T18:12:01.256Z,65.91
2018-09-14T18:14:29.840Z,65.69
2018-09-14T18:16:58.880Z,65.65
2018-09-14T18:19:27.421Z,65.84
2018-09-14T18:21:56.082Z,66.51
2018-09-14T18:24:25.009Z,66.68
2018-09-14T18:26:53.603Z,66.38
2018-09-14T18:29:22.158Z,66.67
2018-09-14T18:31:51.402Z,66.91
2018-09-14T18:34:19.953Z,66.87
2018-09-14T18:36:48.576Z,66.89
2018-09-14T18:39:17.112Z,67.99
2018-09-14T18:41:47.177Z,67.60
2018-09-14T18:44:23.981Z,67.66
2018-09-14T18:46:52.759Z,69.23
2018-09-14T18:49:26.574Z,69.96
2018-09-14T18:52:02.861Z,68.17
2018-09-14T18:54:34.249Z,69.07
2018-09-14T18:57:02.834Z,69.18
2018-09-14T18:59:31.396Z,68.67
2018-09-14T19:01:59.973Z,68.83
2018-09-14T19:04:28.493Z,69.20
2018-09-14T19:06:57.093Z,69.85
2018-09-14T19:09:25.624Z,71.45
2018-09-14T19:11:54.185Z,71.69
2018-09-14T19:14:22.725Z,71.32
2018-09-14T19:16:51.289Z,71.10
2018-09-14T19:19:20.284Z,71.49
2018-09-14T19:21:48.849Z,71.11
2018-09-14T19:24:17.378Z,72.44
2018-09-14T19:26:45.945Z,72.56
2018-09-14T19:29:14.468Z,74.74
2018-09-14T19:31:43.091Z,75.79
2018-09-14T19:34:11.668Z,76.63
2018-09-14T19:36:40.277Z,76.26
2018-09-14T19:39:10.772Z,76.28
2018-09-14T19:41:39.385Z,77.69
2018-09-14T19:44:07.932Z,76.18
2018-09-14T19:46:36.561Z,77.27
2018-09-14T19:49:05.409Z,77.62
2018-09-14T19:51:33.992Z,78.21
2018-09-14T19:54:02.572Z,76.71
2018-09-14T19:56:31.164Z,76.88
2018-09-14T19:58:59.717Z,76.60
2018-09-14T20:01:28.325Z,77.17
2018-09-14T20:03:56.855Z,77.89
2018-09-14T20:06:25.644Z,77.89
2018-09-14T20:08:54.223Z,77.83
2018-09-14T20:11:22.817Z,78.36
2018-09-14T20:13:51.708Z,79.74
2018-09-14T20:16:20.466Z,79.63
2018-09-14T20:18:49.544Z,80.41
2018-09-14T20:21:18.124Z,79.21
2018-09-14T20:23:46.677Z,79.95
2018-09-14T20:26:15.528Z,79.93
2018-09-14T20:28:46.768Z,80.30
2018-09-14T20:31:15.309Z,80.97
2018-09-14T20:33:49.351Z,83.16
2018-09-14T20:36:22.834Z,84.87
2018-09-14T20:38:53.170Z,83.45
2018-09-14T20:41:22.708Z,83.02
2018-09-14T20:43:53.507Z,81.90
2018-09-14T20:46:23.104Z,85.09
2018-09-14T20:48:53.716Z,83.62
2018-09-14T20:51:24.100Z,84.19
2018-09-14T20:53:55.105Z,83.99
2018-09-14T20:56:25.352Z,84.10
2018-09-14T20:58:54.885Z,84.34
2018-09-14T21:01:33.409Z,84.88
2018-09-14T21:04:04.088Z,84.96
2018-09-14T21:06:35.288Z,85.21
2018-09-14T21:09:08.413Z,85.04
2018-09-14T21:11:38.790Z,85.88
2018-09-14T21:14:10.393Z,88.32
2018-09-14T21:16:45.208Z,89.08
2018-09-14T21:19:15.241Z,87.59
2018-09-14T21:21:48.061Z,87.17
2018-09-14T21:24:16.775Z,87.12
2018-09-14T21:26:45.316Z,87.46
2018-09-14T21:29:15.535Z,87.41
2018-09-14T21:31:47.856Z,90.93
2018-09-14T21:34:17.704Z,88.83
2018-09-14T21:36:51.892Z,89.09
2018-09-14T21:39:22.218Z,89.00
2018-09-14T21:41:55.270Z,88.85
2018-09-14T21:44:25.453Z,91.31
2018-09-14T21:46:57.561Z,89.05
2018-09-14T21:49:32.134Z,87.98
2018-09-14T21:52:01.872Z,88.99
2018-09-14T21:54:31.635Z,89.60
2018-09-14T21:57:01.397Z,91.07
2018-09-14T21:59:34.215Z,92.52
2018-09-14T22:02:10.326Z,90.25
2018-09-14T22:04:40.256Z,88.49
2018-09-14T22:07:12.543Z,87.44
2018-09-14T22:09:43.662Z,87.90
2018-09-14T22:12:14.296Z,89.64
2018-09-14T22:14:45.084Z,88.35
2018-09-14T22:17:14.453Z,88.85
2018-09-14T22:19:44.708Z,88.74
2018-09-14T22:22:18.073Z,89.96
2018-09-14T22:24:48.833Z,88.40
2018-09-14T22:27:20.327Z,87.87
2018-09-14T22:29:51.101Z,87.33
2018-09-14T22:32:20.393Z,86.81
2018-09-14T22:34:50.512Z,86.72
2018-09-14T22:37:23.508Z,88.29
2018-09-14T22:39:56.292Z,88.89
2018-09-14T22:42:25.121Z,89.23
2018-09-14T22:44:53.659Z,89.68
2018-09-14T22:47:22.173Z,91.39
2018-09-14T22:49:50.705Z,93.00
2018-09-14T22:52:19.216Z,91.47
2018-09-14T22:54:47.744Z,92.20
2018-09-14T22:57:16.256Z,91.90
2018-09-14T22:59:44.828Z,91.98
2018-09-14T23:02:13.332Z,90.71
2018-09-14T23:04:41.918Z,91.78
2018-09-14T23:07:10.421Z,91.87
2018-09-14T23:09:38.956Z,91.36
2018-09-14T23:12:07.746Z,92.57
2018-09-14T23:14:36.279Z,92.45
2018-09-14T23:17:04.799Z,91.55
2018-09-14T23:19:33.352Z,90.79
2018-09-14T23:22:01.860Z,90.90
2018-09-14T23:24:30.396Z,90.57
2018-09-14T23:26:58.928Z,90.28
2018-09-14T23:29:27.465Z,90.56
2018-09-14T23:31:55.963Z,89.67
2018-09-14T23:34:24.497Z,89.98
2018-09-14T23:36:53.004Z,88.95
2018-09-14T23:39:21.546Z,90.39
2018-09-14T23:41:50.296Z,90.61
2018-09-14T23:44:18.832Z,90.46
2018-09-14T23:46:47.333Z,91.88
2018-09-14T23:49:16.405Z,91.63
2018-09-14T23:51:44.916Z,89.39
2018-09-14T23:54:13.488Z,88.48
2018-09-14T23:56:42.000Z,89.88
2018-09-14T23:59:10.546Z,89.46
